sensor_id;sensor_type;location;lat;lon;timestamp;P1;durP1;ratioP1;P2;durP2;ratioP2
19643;SDS011;9970;-36.854;174.870;2023-05-29T00:02:03;23.83;;;7.03;;
19643;SDS011;9970;-36.854;174.870;2023-05-29T00:04:36;23.90;;;6.23;;
19643;SDS011;9970;-36.854;174.870;2023-05-29T00:07:10;17.73;;;6.20;;
19643;SDS011;9970;-36.854;174.870;2023-05-29T00:09:42;19.53;;;5.30;;
19643;SDS011;9970;-36.854;174.870;2023-05-29T00:12:15;22.67;;;6.60;;
19643;SDS011;9970;-36.854;174.870;2023-05-29T00:14:48;26.80;;;5.37;;
19643;SDS011;9970;-36.854;174.870;2023-05-29T00:17:21;31.63;;;7.67;;
19643;SDS011;9970;-36.854;174.870;2023-05-29T00:19:55;25.67;;;7.77;;
19643;SDS011;9970;-36.854;174.870;2023-05-29T00:22:28;20.13;;;5.20;;
19643;SDS011;9970;-36.854;174.870;2023-05-29T00:25:01;18.40;;;6.43;;
19643;SDS011;9970;-36.854;174.870;2023-05-29T00:27:35;31.30;;;7.27;;
19643;SDS011;9970;-36.854;174.870;2023-05-29T00:30:08;23.73;;;8.10;;
19643;SDS011;9970;-36.854;174.870;2023-05-29T00:32:41;20.57;;;5.93;;
19643;SDS011;9970;-36.854;174.870;2023-05-29T00:35:15;24.50;;;5.60;;
19643;SDS011;9970;-36.854;174.870;2023-05-29T00:37:48;14.80;;;5.93;;
19643;SDS011;9970;-36.854;174.870;2023-05-29T00:40:21;18.77;;;5.77;;
19643;SDS011;9970;-36.854;174.870;2023-05-29T00:42:54;24.10;;;6.73;;
19643;SDS011;9970;-36.854;174.870;2023-05-29T00:45:29;26.30;;;7.10;;
19643;SDS011;9970;-36.854;174.870;2023-05-29T00:48:04;16.33;;;5.27;;
19643;SDS011;9970;-36.854;174.870;2023-05-29T00:50:38;22.03;;;5.67;;
19643;SDS011;9970;-36.854;174.870;2023-05-29T00:53:11;25.80;;;6.33;;
19643;SDS011;9970;-36.854;174.870;2023-05-29T00:55:44;24.30;;;6.27;;
19643;SDS011;9970;-36.854;174.870;2023-05-29T00:58:17;32.83;;;6.70;;
19643;SDS011;9970;-36.854;174.870;2023-05-29T01:00:51;28.17;;;7.10;;
19643;SDS011;9970;-36.854;174.870;2023-05-29T01:03:24;31.30;;;7.40;;
19643;SDS011;9970;-36.854;174.870;2023-05-29T01:05:58;23.73;;;5.73;;
19643;SDS011;9970;-36.854;174.870;2023-05-29T01:08:32;29.20;;;6.97;;
19643;SDS011;9970;-36.854;174.870;2023-05-29T01:13:58;25.37;;;6.40;;
19643;SDS011;9970;-36.854;174.870;2023-05-29T01:16:48;25.40;;;6.23;;
19643;SDS011;9970;-36.854;174.870;2023-05-29T01:24:51;20.20;;;6.13;;
19643;SDS011;9970;-36.854;174.870;2023-05-29T01:27:30;17.77;;;7.00;;
19643;SDS011;9970;-36.854;174.870;2023-05-29T01:30:04;20.33;;;7.23;;
19643;SDS011;9970;-36.854;174.870;2023-05-29T01:32:38;12.97;;;5.33;;
19643;SDS011;9970;-36.854;174.870;2023-05-29T01:35:12;30.47;;;5.63;;
19643;SDS011;9970;-36.854;174.870;2023-05-29T01:37:45;11.90;;;5.37;;
19643;SDS011;9970;-36.854;174.870;2023-05-29T01:40:17;21.37;;;6.30;;
19643;SDS011;9970;-36.854;174.870;2023-05-29T01:42:50;13.90;;;4.70;;
19643;SDS011;9970;-36.854;174.870;2023-05-29T01:45:28;9.30;;;5.13;;
19643;SDS011;9970;-36.854;174.870;2023-05-29T01:48:01;21.60;;;6.30;;
19643;SDS011;9970;-36.854;174.870;2023-05-29T01:50:35;18.33;;;5.40;;
19643;SDS011;9970;-36.854;174.870;2023-05-29T01:53:08;15.80;;;4.87;;
19643;SDS011;9970;-36.854;174.870;2023-05-29T01:55:41;20.80;;;5.50;;
19643;SDS011;9970;-36.854;174.870;2023-05-29T01:58:14;13.73;;;5.47;;
19643;SDS011;9970;-36.854;174.870;2023-05-29T02:00:48;22.23;;;6.10;;
19643;SDS011;9970;-36.854;174.870;2023-05-29T02:03:22;22.60;;;5.43;;
19643;SDS011;9970;-36.854;174.870;2023-05-29T02:05:56;13.50;;;5.63;;
19643;SDS011;9970;-36.854;174.870;2023-05-29T02:08:30;28.23;;;7.73;;
19643;SDS011;9970;-36.854;174.870;2023-05-29T02:11:05;19.47;;;4.40;;
19643;SDS011;9970;-36.854;174.870;2023-05-29T02:13:38;20.50;;;6.07;;
19643;SDS011;9970;-36.854;174.870;2023-05-29T02:16:11;19.50;;;5.80;;
19643;SDS011;9970;-36.854;174.870;2023-05-29T02:18:44;17.00;;;6.23;;
19643;SDS011;9970;-36.854;174.870;2023-05-29T02:21:17;17.43;;;6.30;;
19643;SDS011;9970;-36.854;174.870;2023-05-29T02:23:50;12.80;;;4.87;;
19643;SDS011;9970;-36.854;174.870;2023-05-29T02:26:23;18.00;;;6.63;;
19643;SDS011;9970;-36.854;174.870;2023-05-29T02:28:59;23.00;;;5.90;;
19643;SDS011;9970;-36.854;174.870;2023-05-29T02:31:31;17.33;;;5.97;;
19643;SDS011;9970;-36.854;174.870;2023-05-29T02:34:05;32.13;;;7.87;;
19643;SDS011;9970;-36.854;174.870;2023-05-29T02:36:38;22.97;;;6.43;;
19643;SDS011;9970;-36.854;174.870;2023-05-29T02:39:11;18.57;;;4.87;;
19643;SDS011;9970;-36.854;174.870;2023-05-29T02:41:44;19.83;;;5.03;;
19643;SDS011;9970;-36.854;174.870;2023-05-29T02:44:17;22.97;;;7.17;;
19643;SDS011;9970;-36.854;174.870;2023-05-29T02:46:50;18.33;;;5.03;;
19643;SDS011;9970;-36.854;174.870;2023-05-29T02:49:23;20.10;;;5.50;;
19643;SDS011;9970;-36.854;174.870;2023-05-29T02:51:56;14.03;;;5.63;;
19643;SDS011;9970;-36.854;174.870;2023-05-29T02:54:29;22.27;;;6.00;;
19643;SDS011;9970;-36.854;174.870;2023-05-29T02:57:02;21.10;;;5.03;;
19643;SDS011;9970;-36.854;174.870;2023-05-29T02:59:39;24.17;;;5.07;;
19643;SDS011;9970;-36.854;174.870;2023-05-29T03:02:13;13.00;;;4.40;;
19643;SDS011;9970;-36.854;174.870;2023-05-29T03:04:46;15.87;;;4.43;;
19643;SDS011;9970;-36.854;174.870;2023-05-29T03:07:20;18.27;;;4.93;;
19643;SDS011;9970;-36.854;174.870;2023-05-29T03:09:53;17.70;;;4.67;;
19643;SDS011;9970;-36.854;174.870;2023-05-29T03:12:27;20.03;;;5.20;;
19643;SDS011;9970;-36.854;174.870;2023-05-29T03:15:00;15.23;;;3.97;;
19643;SDS011;9970;-36.854;174.870;2023-05-29T03:17:33;9.73;;;3.90;;
19643;SDS011;9970;-36.854;174.870;2023-05-29T03:20:07;14.80;;;3.90;;
19643;SDS011;9970;-36.854;174.870;2023-05-29T03:22:40;14.00;;;3.63;;
19643;SDS011;9970;-36.854;174.870;2023-05-29T03:25:13;5.50;;;4.20;;
19643;SDS011;9970;-36.854;174.870;2023-05-29T03:27:46;11.03;;;4.00;;
19643;SDS011;9970;-36.854;174.870;2023-05-29T03:30:19;23.17;;;3.73;;
19643;SDS011;9970;-36.854;174.870;2023-05-29T03:32:52;9.33;;;3.23;;
19643;SDS011;9970;-36.854;174.870;2023-05-29T03:35:25;16.90;;;4.30;;
19643;SDS011;9970;-36.854;174.870;2023-05-29T03:38:02;13.87;;;3.67;;
19643;SDS011;9970;-36.854;174.870;2023-05-29T03:40:35;14.43;;;3.87;;
19643;SDS011;9970;-36.854;174.870;2023-05-29T03:43:07;10.43;;;4.10;;
19643;SDS011;9970;-36.854;174.870;2023-05-29T03:45:40;12.30;;;3.87;;
19643;SDS011;9970;-36.854;174.870;2023-05-29T03:48:13;5.20;;;4.00;;
19643;SDS011;9970;-36.854;174.870;2023-05-29T03:50:46;6.87;;;4.43;;
19643;SDS011;9970;-36.854;174.870;2023-05-29T03:53:23;9.57;;;3.97;;
19643;SDS011;9970;-36.854;174.870;2023-05-29T03:55:56;7.10;;;3.60;;
19643;SDS011;9970;-36.854;174.870;2023-05-29T03:58:28;7.13;;;4.00;;
19643;SDS011;9970;-36.854;174.870;2023-05-29T04:01:01;8.63;;;3.87;;
19643;SDS011;9970;-36.854;174.870;2023-05-29T04:03:34;12.63;;;4.07;;
19643;SDS011;9970;-36.854;174.870;2023-05-29T04:06:07;10.03;;;4.30;;
19643;SDS011;9970;-36.854;174.870;2023-05-29T04:08:41;13.33;;;4.87;;
19643;SDS011;9970;-36.854;174.870;2023-05-29T04:11:14;17.07;;;4.60;;
19643;SDS011;9970;-36.854;174.870;2023-05-29T04:13:46;6.77;;;3.77;;
19643;SDS011;9970;-36.854;174.870;2023-05-29T04:16:19;18.87;;;4.80;;
19643;SDS011;9970;-36.854;174.870;2023-05-29T04:18:52;6.87;;;3.40;;
19643;SDS011;9970;-36.854;174.870;2023-05-29T04:21:25;19.17;;;6.73;;
19643;SDS011;9970;-36.854;174.870;2023-05-29T04:24:03;27.63;;;4.53;;
19643;SDS011;9970;-36.854;174.870;2023-05-29T04:26:36;8.47;;;3.60;;
19643;SDS011;9970;-36.854;174.870;2023-05-29T04:29:11;15.77;;;4.07;;
19643;SDS011;9970;-36.854;174.870;2023-05-29T04:31:44;8.23;;;4.20;;
19643;SDS011;9970;-36.854;174.870;2023-05-29T04:34:17;9.20;;;3.50;;
19643;SDS011;9970;-36.854;174.870;2023-05-29T04:36:51;16.97;;;4.23;;
19643;SDS011;9970;-36.854;174.870;2023-05-29T04:39:24;5.77;;;3.90;;
19643;SDS011;9970;-36.854;174.870;2023-05-29T04:41:57;10.97;;;4.50;;
19643;SDS011;9970;-36.854;174.870;2023-05-29T04:44:30;14.83;;;3.93;;
19643;SDS011;9970;-36.854;174.870;2023-05-29T04:47:03;10.47;;;4.30;;
19643;SDS011;9970;-36.854;174.870;2023-05-29T04:49:36;9.60;;;4.87;;
19643;SDS011;9970;-36.854;174.870;2023-05-29T04:52:11;12.70;;;3.60;;
19643;SDS011;9970;-36.854;174.870;2023-05-29T04:54:44;14.00;;;4.10;;
19643;SDS011;9970;-36.854;174.870;2023-05-29T04:57:17;14.87;;;4.50;;
19643;SDS011;9970;-36.854;174.870;2023-05-29T04:59:53;12.83;;;4.20;;
19643;SDS011;9970;-36.854;174.870;2023-05-29T05:02:25;7.20;;;4.00;;
19643;SDS011;9970;-36.854;174.870;2023-05-29T05:04:59;9.10;;;4.00;;
19643;SDS011;9970;-36.854;174.870;2023-05-29T05:07:31;6.90;;;3.00;;
19643;SDS011;9970;-36.854;174.870;2023-05-29T05:10:05;15.80;;;3.67;;
19643;SDS011;9970;-36.854;174.870;2023-05-29T05:12:38;9.63;;;3.87;;
19643;SDS011;9970;-36.854;174.870;2023-05-29T05:15:12;11.50;;;4.30;;
19643;SDS011;9970;-36.854;174.870;2023-05-29T05:17:46;11.23;;;4.73;;
19643;SDS011;9970;-36.854;174.870;2023-05-29T05:20:19;11.83;;;4.80;;
19643;SDS011;9970;-36.854;174.870;2023-05-29T05:22:52;14.53;;;4.03;;
19643;SDS011;9970;-36.854;174.870;2023-05-29T05:25:25;10.53;;;3.40;;
19643;SDS011;9970;-36.854;174.870;2023-05-29T05:27:58;9.77;;;4.00;;
19643;SDS011;9970;-36.854;174.870;2023-05-29T05:30:35;4.77;;;2.83;;
19643;SDS011;9970;-36.854;174.870;2023-05-29T05:33:08;10.10;;;2.63;;
19643;SDS011;9970;-36.854;174.870;2023-05-29T05:35:41;16.07;;;3.57;;
19643;SDS011;9970;-36.854;174.870;2023-05-29T05:38:14;11.70;;;4.20;;
19643;SDS011;9970;-36.854;174.870;2023-05-29T05:40:47;11.60;;;3.20;;
19643;SDS011;9970;-36.854;174.870;2023-05-29T05:43:21;12.20;;;3.63;;
19643;SDS011;9970;-36.854;174.870;2023-05-29T05:45:55;9.47;;;3.70;;
19643;SDS011;9970;-36.854;174.870;2023-05-29T05:48:28;6.90;;;3.50;;
19643;SDS011;9970;-36.854;174.870;2023-05-29T05:51:01;14.40;;;3.57;;
19643;SDS011;9970;-36.854;174.870;2023-05-29T05:53:34;10.30;;;3.83;;
19643;SDS011;9970;-36.854;174.870;2023-05-29T05:56:08;5.37;;;2.70;;
19643;SDS011;9970;-36.854;174.870;2023-05-29T05:58:41;10.03;;;3.47;;
19643;SDS011;9970;-36.854;174.870;2023-05-29T06:01:14;9.00;;;4.00;;
19643;SDS011;9970;-36.854;174.870;2023-05-29T06:03:48;14.17;;;3.07;;
19643;SDS011;9970;-36.854;174.870;2023-05-29T06:06:21;16.00;;;3.40;;
19643;SDS011;9970;-36.854;174.870;2023-05-29T06:08:54;13.33;;;3.90;;
19643;SDS011;9970;-36.854;174.870;2023-05-29T06:11:27;15.50;;;4.50;;
19643;SDS011;9970;-36.854;174.870;2023-05-29T06:14:01;13.87;;;3.73;;
19643;SDS011;9970;-36.854;174.870;2023-05-29T06:16:34;8.33;;;3.90;;
19643;SDS011;9970;-36.854;174.870;2023-05-29T06:19:07;10.63;;;3.47;;
19643;SDS011;9970;-36.854;174.870;2023-05-29T06:21:40;5.80;;;2.93;;
19643;SDS011;9970;-36.854;174.870;2023-05-29T06:24:13;10.20;;;3.33;;
19643;SDS011;9970;-36.854;174.870;2023-05-29T06:26:46;9.13;;;2.73;;
19643;SDS011;9970;-36.854;174.870;2023-05-29T06:29:19;6.97;;;3.20;;
19643;SDS011;9970;-36.854;174.870;2023-05-29T06:31:55;7.40;;;3.20;;
19643;SDS011;9970;-36.854;174.870;2023-05-29T06:34:28;3.80;;;2.67;;
19643;SDS011;9970;-36.854;174.870;2023-05-29T06:37:01;13.37;;;3.60;;
19643;SDS011;9970;-36.854;174.870;2023-05-29T06:39:34;11.40;;;3.93;;
19643;SDS011;9970;-36.854;174.870;2023-05-29T06:42:09;10.57;;;3.87;;
19643;SDS011;9970;-36.854;174.870;2023-05-29T06:44:41;15.30;;;3.67;;
19643;SDS011;9970;-36.854;174.870;2023-05-29T06:47:14;12.00;;;3.30;;
19643;SDS011;9970;-36.854;174.870;2023-05-29T06:49:47;10.73;;;3.30;;
19643;SDS011;9970;-36.854;174.870;2023-05-29T06:52:21;18.23;;;3.20;;
19643;SDS011;9970;-36.854;174.870;2023-05-29T06:54:54;8.57;;;4.17;;
19643;SDS011;9970;-36.854;174.870;2023-05-29T06:57:27;5.50;;;2.77;;
19643;SDS011;9970;-36.854;174.870;2023-05-29T07:00:00;13.03;;;4.00;;
19643;SDS011;9970;-36.854;174.870;2023-05-29T07:02:34;8.73;;;3.00;;
19643;SDS011;9970;-36.854;174.870;2023-05-29T07:05:07;12.17;;;4.27;;
19643;SDS011;9970;-36.854;174.870;2023-05-29T07:07:40;5.17;;;2.13;;
19643;SDS011;9970;-36.854;174.870;2023-05-29T07:10:13;12.70;;;3.80;;
19643;SDS011;9970;-36.854;174.870;2023-05-29T07:12:46;9.30;;;3.47;;
19643;SDS011;9970;-36.854;174.870;2023-05-29T07:15:19;9.27;;;2.03;;
19643;SDS011;9970;-36.854;174.870;2023-05-29T07:17:52;8.70;;;3.53;;
19643;SDS011;9970;-36.854;174.870;2023-05-29T07:20:25;6.40;;;2.60;;
19643;SDS011;9970;-36.854;174.870;2023-05-29T07:22:57;7.37;;;3.10;;
19643;SDS011;9970;-36.854;174.870;2023-05-29T07:25:33;6.60;;;3.13;;
19643;SDS011;9970;-36.854;174.870;2023-05-29T07:28:06;9.33;;;3.60;;
19643;SDS011;9970;-36.854;174.870;2023-05-29T07:30:40;5.67;;;2.30;;
19643;SDS011;9970;-36.854;174.870;2023-05-29T07:33:13;3.00;;;2.30;;
19643;SDS011;9970;-36.854;174.870;2023-05-29T07:35:45;7.10;;;2.40;;
19643;SDS011;9970;-36.854;174.870;2023-05-29T07:38:19;7.23;;;2.40;;
19643;SDS011;9970;-36.854;174.870;2023-05-29T07:40:51;2.30;;;1.87;;
19643;SDS011;9970;-36.854;174.870;2023-05-29T07:43:25;8.70;;;2.70;;
19643;SDS011;9970;-36.854;174.870;2023-05-29T07:45:58;3.10;;;2.57;;
19643;SDS011;9970;-36.854;174.870;2023-05-29T07:48:31;10.83;;;2.83;;
19643;SDS011;9970;-36.854;174.870;2023-05-29T07:51:04;6.43;;;2.73;;
19643;SDS011;9970;-36.854;174.870;2023-05-29T07:53:38;14.07;;;4.33;;
19643;SDS011;9970;-36.854;174.870;2023-05-29T07:56:12;7.53;;;2.60;;
19643;SDS011;9970;-36.854;174.870;2023-05-29T07:58:46;5.03;;;3.10;;
19643;SDS011;9970;-36.854;174.870;2023-05-29T08:01:19;11.40;;;2.83;;
19643;SDS011;9970;-36.854;174.870;2023-05-29T08:03:52;9.63;;;3.33;;
19643;SDS011;9970;-36.854;174.870;2023-05-29T08:06:26;6.00;;;3.10;;
19643;SDS011;9970;-36.854;174.870;2023-05-29T08:09:00;4.63;;;2.50;;
19643;SDS011;9970;-36.854;174.870;2023-05-29T08:11:34;6.33;;;3.03;;
19643;SDS011;9970;-36.854;174.870;2023-05-29T08:14:10;5.57;;;2.33;;
19643;SDS011;9970;-36.854;174.870;2023-05-29T08:16:43;6.83;;;3.20;;
19643;SDS011;9970;-36.854;174.870;2023-05-29T08:19:16;8.00;;;2.63;;
19643;SDS011;9970;-36.854;174.870;2023-05-29T08:21:49;8.27;;;3.10;;
19643;SDS011;9970;-36.854;174.870;2023-05-29T08:24:22;4.00;;;3.60;;
19643;SDS011;9970;-36.854;174.870;2023-05-29T08:26:55;7.27;;;2.73;;
19643;SDS011;9970;-36.854;174.870;2023-05-29T08:29:28;6.57;;;2.80;;
19643;SDS011;9970;-36.854;174.870;2023-05-29T08:32:01;2.87;;;2.53;;
19643;SDS011;9970;-36.854;174.870;2023-05-29T08:34:34;3.00;;;2.40;;
19643;SDS011;9970;-36.854;174.870;2023-05-29T08:37:10;7.50;;;2.83;;
19643;SDS011;9970;-36.854;174.870;2023-05-29T08:39:43;2.87;;;2.43;;
19643;SDS011;9970;-36.854;174.870;2023-05-29T08:42:26;11.70;;;2.80;;
19643;SDS011;9970;-36.854;174.870;2023-05-29T08:45:02;7.00;;;2.77;;
19643;SDS011;9970;-36.854;174.870;2023-05-29T08:47:35;1.80;;;1.70;;
19643;SDS011;9970;-36.854;174.870;2023-05-29T08:50:11;7.03;;;2.33;;
19643;SDS011;9970;-36.854;174.870;2023-05-29T08:52:46;8.90;;;3.10;;
19643;SDS011;9970;-36.854;174.870;2023-05-29T08:55:20;4.53;;;2.37;;
19643;SDS011;9970;-36.854;174.870;2023-05-29T08:57:53;11.97;;;3.00;;
19643;SDS011;9970;-36.854;174.870;2023-05-29T09:00:27;6.40;;;3.53;;
19643;SDS011;9970;-36.854;174.870;2023-05-29T09:03:00;8.80;;;3.57;;
19643;SDS011;9970;-36.854;174.870;2023-05-29T09:05:33;3.40;;;2.63;;
19643;SDS011;9970;-36.854;174.870;2023-05-29T09:08:10;4.40;;;2.60;;
19643;SDS011;9970;-36.854;174.870;2023-05-29T09:10:44;8.23;;;2.83;;
19643;SDS011;9970;-36.854;174.870;2023-05-29T09:13:18;6.07;;;2.70;;
19643;SDS011;9970;-36.854;174.870;2023-05-29T09:15:53;12.80;;;2.70;;
19643;SDS011;9970;-36.854;174.870;2023-05-29T09:18:28;6.43;;;2.57;;
19643;SDS011;9970;-36.854;174.870;2023-05-29T09:21:06;6.37;;;2.73;;
19643;SDS011;9970;-36.854;174.870;2023-05-29T09:23:39;9.83;;;3.10;;
19643;SDS011;9970;-36.854;174.870;2023-05-29T09:26:13;11.53;;;4.70;;
19643;SDS011;9970;-36.854;174.870;2023-05-29T09:28:46;7.37;;;2.63;;
19643;SDS011;9970;-36.854;174.870;2023-05-29T09:31:19;10.07;;;3.20;;
19643;SDS011;9970;-36.854;174.870;2023-05-29T09:33:53;5.90;;;4.10;;
19643;SDS011;9970;-36.854;174.870;2023-05-29T09:36:25;14.30;;;3.30;;
19643;SDS011;9970;-36.854;174.870;2023-05-29T09:39:01;12.20;;;3.07;;
19643;SDS011;9970;-36.854;174.870;2023-05-29T09:41:34;11.20;;;4.07;;
19643;SDS011;9970;-36.854;174.870;2023-05-29T09:44:14;8.50;;;3.10;;
19643;SDS011;9970;-36.854;174.870;2023-05-29T09:46:48;5.30;;;3.50;;
19643;SDS011;9970;-36.854;174.870;2023-05-29T09:49:22;9.03;;;3.80;;
19643;SDS011;9970;-36.854;174.870;2023-05-29T09:51:55;5.37;;;3.00;;
19643;SDS011;9970;-36.854;174.870;2023-05-29T09:54:29;6.33;;;4.70;;
19643;SDS011;9970;-36.854;174.870;2023-05-29T09:57:07;7.97;;;3.10;;
19643;SDS011;9970;-36.854;174.870;2023-05-29T09:59:41;5.43;;;2.63;;
19643;SDS011;9970;-36.854;174.870;2023-05-29T10:02:18;4.90;;;2.70;;
19643;SDS011;9970;-36.854;174.870;2023-05-29T10:04:51;4.83;;;2.60;;
19643;SDS011;9970;-36.854;174.870;2023-05-29T10:07:27;4.13;;;2.73;;
19643;SDS011;9970;-36.854;174.870;2023-05-29T10:10:05;11.37;;;3.33;;
19643;SDS011;9970;-36.854;174.870;2023-05-29T10:12:39;11.33;;;3.43;;
19643;SDS011;9970;-36.854;174.870;2023-05-29T10:15:16;4.93;;;2.80;;
19643;SDS011;9970;-36.854;174.870;2023-05-29T10:17:51;5.60;;;3.50;;
19643;SDS011;9970;-36.854;174.870;2023-05-29T10:20:28;5.23;;;3.03;;
19643;SDS011;9970;-36.854;174.870;2023-05-29T10:23:05;4.47;;;3.20;;
19643;SDS011;9970;-36.854;174.870;2023-05-29T10:25:39;7.80;;;3.67;;
19643;SDS011;9970;-36.854;174.870;2023-05-29T10:28:15;15.70;;;4.63;;
19643;SDS011;9970;-36.854;174.870;2023-05-29T10:30:53;10.10;;;2.87;;
19643;SDS011;9970;-36.854;174.870;2023-05-29T10:36:06;6.40;;;3.47;;
19643;SDS011;9970;-36.854;174.870;2023-05-29T10:38:54;13.27;;;3.70;;
19643;SDS011;9970;-36.854;174.870;2023-05-29T10:44:03;10.63;;;2.90;;
19643;SDS011;9970;-36.854;174.870;2023-05-29T10:49:19;11.40;;;4.03;;
19643;SDS011;9970;-36.854;174.870;2023-05-29T10:51:52;9.33;;;4.47;;
19643;SDS011;9970;-36.854;174.870;2023-05-29T10:54:25;13.10;;;3.90;;
19643;SDS011;9970;-36.854;174.870;2023-05-29T10:56:58;11.50;;;3.70;;
19643;SDS011;9970;-36.854;174.870;2023-05-29T10:59:35;20.07;;;5.47;;
19643;SDS011;9970;-36.854;174.870;2023-05-29T11:02:07;9.57;;;3.57;;
19643;SDS011;9970;-36.854;174.870;2023-05-29T11:04:41;8.10;;;3.33;;
19643;SDS011;9970;-36.854;174.870;2023-05-29T11:07:33;9.73;;;3.83;;
19643;SDS011;9970;-36.854;174.870;2023-05-29T11:10:13;19.00;;;3.13;;
19643;SDS011;9970;-36.854;174.870;2023-05-29T11:12:56;20.20;;;4.10;;
19643;SDS011;9970;-36.854;174.870;2023-05-29T11:15:29;12.93;;;5.40;;
19643;SDS011;9970;-36.854;174.870;2023-05-29T11:18:06;7.87;;;3.73;;
19643;SDS011;9970;-36.854;174.870;2023-05-29T11:20:49;9.53;;;4.00;;
19643;SDS011;9970;-36.854;174.870;2023-05-29T11:23:21;10.90;;;3.70;;
19643;SDS011;9970;-36.854;174.870;2023-05-29T11:25:55;3.57;;;3.27;;
19643;SDS011;9970;-36.854;174.870;2023-05-29T11:28:36;6.27;;;3.07;;
19643;SDS011;9970;-36.854;174.870;2023-05-29T11:31:09;14.13;;;3.50;;
19643;SDS011;9970;-36.854;174.870;2023-05-29T11:33:47;11.33;;;5.77;;
19643;SDS011;9970;-36.854;174.870;2023-05-29T11:36:17;3.77;;;2.53;;
19643;SDS011;9970;-36.854;174.870;2023-05-29T11:38:51;5.67;;;2.93;;
19643;SDS011;9970;-36.854;174.870;2023-05-29T11:41:24;10.63;;;3.27;;
19643;SDS011;9970;-36.854;174.870;2023-05-29T11:44:00;3.43;;;3.20;;
19643;SDS011;9970;-36.854;174.870;2023-05-29T11:46:35;3.17;;;2.80;;
19643;SDS011;9970;-36.854;174.870;2023-05-29T11:49:08;10.97;;;3.87;;
19643;SDS011;9970;-36.854;174.870;2023-05-29T11:51:41;9.27;;;3.80;;
19643;SDS011;9970;-36.854;174.870;2023-05-29T11:54:14;5.77;;;3.80;;
19643;SDS011;9970;-36.854;174.870;2023-05-29T11:56:49;8.60;;;3.03;;
19643;SDS011;9970;-36.854;174.870;2023-05-29T11:59:22;6.33;;;3.30;;
19643;SDS011;9970;-36.854;174.870;2023-05-29T12:01:55;8.90;;;3.60;;
19643;SDS011;9970;-36.854;174.870;2023-05-29T12:04:28;5.60;;;3.50;;
19643;SDS011;9970;-36.854;174.870;2023-05-29T12:07:01;5.67;;;3.10;;
19643;SDS011;9970;-36.854;174.870;2023-05-29T12:09:35;6.00;;;2.90;;
19643;SDS011;9970;-36.854;174.870;2023-05-29T12:12:10;2.50;;;2.40;;
19643;SDS011;9970;-36.854;174.870;2023-05-29T12:14:43;7.30;;;3.90;;
19643;SDS011;9970;-36.854;174.870;2023-05-29T12:17:16;5.43;;;2.80;;
19643;SDS011;9970;-36.854;174.870;2023-05-29T12:19:49;6.40;;;2.60;;
19643;SDS011;9970;-36.854;174.870;2023-05-29T12:22:35;11.33;;;3.50;;
19643;SDS011;9970;-36.854;174.870;2023-05-29T12:25:15;17.07;;;3.40;;
19643;SDS011;9970;-36.854;174.870;2023-05-29T12:27:43;3.33;;;2.70;;
19643;SDS011;9970;-36.854;174.870;2023-05-29T12:32:55;3.77;;;3.37;;
19643;SDS011;9970;-36.854;174.870;2023-05-29T12:35:30;2.80;;;2.60;;
19643;SDS011;9970;-36.854;174.870;2023-05-29T12:38:04;5.10;;;3.47;;
19643;SDS011;9970;-36.854;174.870;2023-05-29T12:40:37;7.03;;;2.93;;
19643;SDS011;9970;-36.854;174.870;2023-05-29T12:43:10;6.20;;;3.20;;
19643;SDS011;9970;-36.854;174.870;2023-05-29T12:45:43;4.23;;;2.30;;
19643;SDS011;9970;-36.854;174.870;2023-05-29T12:48:17;4.00;;;2.70;;
19643;SDS011;9970;-36.854;174.870;2023-05-29T12:50:51;5.03;;;2.90;;
19643;SDS011;9970;-36.854;174.870;2023-05-29T12:53:27;10.00;;;3.30;;
19643;SDS011;9970;-36.854;174.870;2023-05-29T12:55:58;9.50;;;2.90;;
19643;SDS011;9970;-36.854;174.870;2023-05-29T12:58:32;4.10;;;3.30;;
19643;SDS011;9970;-36.854;174.870;2023-05-29T13:01:04;7.07;;;3.43;;
19643;SDS011;9970;-36.854;174.870;2023-05-29T13:03:38;3.47;;;3.17;;
19643;SDS011;9970;-36.854;174.870;2023-05-29T13:06:11;7.63;;;3.50;;
19643;SDS011;9970;-36.854;174.870;2023-05-29T13:08:44;8.30;;;3.17;;
19643;SDS011;9970;-36.854;174.870;2023-05-29T13:11:17;9.67;;;3.10;;
19643;SDS011;9970;-36.854;174.870;2023-05-29T13:13:51;6.00;;;2.90;;
19643;SDS011;9970;-36.854;174.870;2023-05-29T13:16:24;4.80;;;3.40;;
19643;SDS011;9970;-36.854;174.870;2023-05-29T13:18:57;5.57;;;3.50;;
19643;SDS011;9970;-36.854;174.870;2023-05-29T13:21:30;2.67;;;2.57;;
19643;SDS011;9970;-36.854;174.870;2023-05-29T13:24:02;8.73;;;3.07;;
19643;SDS011;9970;-36.854;174.870;2023-05-29T13:26:39;5.73;;;2.67;;
19643;SDS011;9970;-36.854;174.870;2023-05-29T13:29:12;4.10;;;2.90;;
19643;SDS011;9970;-36.854;174.870;2023-05-29T13:31:45;5.83;;;3.47;;
19643;SDS011;9970;-36.854;174.870;2023-05-29T13:34:18;9.73;;;4.20;;
19643;SDS011;9970;-36.854;174.870;2023-05-29T13:36:52;3.77;;;2.93;;
19643;SDS011;9970;-36.854;174.870;2023-05-29T13:39:25;5.57;;;3.17;;
19643;SDS011;9970;-36.854;174.870;2023-05-29T13:41:59;3.17;;;2.90;;
19643;SDS011;9970;-36.854;174.870;2023-05-29T13:44:32;4.27;;;2.80;;
19643;SDS011;9970;-36.854;174.870;2023-05-29T13:47:05;7.40;;;3.50;;
19643;SDS011;9970;-36.854;174.870;2023-05-29T13:49:38;3.80;;;2.50;;
19643;SDS011;9970;-36.854;174.870;2023-05-29T13:52:11;5.90;;;2.90;;
19643;SDS011;9970;-36.854;174.870;2023-05-29T13:54:45;7.33;;;2.37;;
19643;SDS011;9970;-36.854;174.870;2023-05-29T13:57:18;5.80;;;3.10;;
19643;SDS011;9970;-36.854;174.870;2023-05-29T13:59:52;2.80;;;2.60;;
19643;SDS011;9970;-36.854;174.870;2023-05-29T14:02:25;6.07;;;2.50;;
19643;SDS011;9970;-36.854;174.870;2023-05-29T14:04:58;2.60;;;2.50;;
19643;SDS011;9970;-36.854;174.870;2023-05-29T14:07:31;2.73;;;2.53;;
19643;SDS011;9970;-36.854;174.870;2023-05-29T14:10:05;2.83;;;2.33;;
19643;SDS011;9970;-36.854;174.870;2023-05-29T14:12:39;4.87;;;2.80;;
19643;SDS011;9970;-36.854;174.870;2023-05-29T14:15:11;3.37;;;3.17;;
19643;SDS011;9970;-36.854;174.870;2023-05-29T14:17:44;2.13;;;1.80;;
19643;SDS011;9970;-36.854;174.870;2023-05-29T14:20:17;7.90;;;2.73;;
19643;SDS011;9970;-36.854;174.870;2023-05-29T14:22:51;5.03;;;3.07;;
19643;SDS011;9970;-36.854;174.870;2023-05-29T14:25:24;2.50;;;2.33;;
19643;SDS011;9970;-36.854;174.870;2023-05-29T14:27:56;2.50;;;2.40;;
19643;SDS011;9970;-36.854;174.870;2023-05-29T14:30:30;2.10;;;2.00;;
19643;SDS011;9970;-36.854;174.870;2023-05-29T14:33:03;3.00;;;2.00;;
19643;SDS011;9970;-36.854;174.870;2023-05-29T14:35:36;4.00;;;2.90;;
19643;SDS011;9970;-36.854;174.870;2023-05-29T14:38:09;13.07;;;2.60;;
19643;SDS011;9970;-36.854;174.870;2023-05-29T14:40:42;4.27;;;2.30;;
19643;SDS011;9970;-36.854;174.870;2023-05-29T14:43:16;4.83;;;3.03;;
19643;SDS011;9970;-36.854;174.870;2023-05-29T14:45:49;5.67;;;3.00;;
19643;SDS011;9970;-36.854;174.870;2023-05-29T14:48:24;3.10;;;2.80;;
19643;SDS011;9970;-36.854;174.870;2023-05-29T14:51:02;3.00;;;2.40;;
19643;SDS011;9970;-36.854;174.870;2023-05-29T14:53:31;2.87;;;2.40;;
19643;SDS011;9970;-36.854;174.870;2023-05-29T14:56:11;3.30;;;2.60;;
19643;SDS011;9970;-36.854;174.870;2023-05-29T14:58:44;2.43;;;2.33;;
19643;SDS011;9970;-36.854;174.870;2023-05-29T15:01:22;14.77;;;2.53;;
19643;SDS011;9970;-36.854;174.870;2023-05-29T15:03:55;2.00;;;2.00;;
19643;SDS011;9970;-36.854;174.870;2023-05-29T15:06:29;15.87;;;2.57;;
19643;SDS011;9970;-36.854;174.870;2023-05-29T15:09:02;2.13;;;2.03;;
19643;SDS011;9970;-36.854;174.870;2023-05-29T15:11:35;4.83;;;2.10;;
19643;SDS011;9970;-36.854;174.870;2023-05-29T15:14:08;5.93;;;2.50;;